sensor_id;sensor_type;location;lat;lon;timestamp;P1;durP1;ratioP1;P2;durP2;ratioP2
5452;SDS011;2749;53.576;9.822;2023-03-01T00:02:18;5.07;;;4.00;;
5452;SDS011;2749;53.576;9.822;2023-03-01T00:04:44;3.63;;;3.33;;
5452;SDS011;2749;53.576;9.822;2023-03-01T00:07:10;4.67;;;4.23;;
5452;SDS011;2749;53.576;9.822;2023-03-01T00:09:36;5.00;;;3.57;;
5452;SDS011;2749;53.576;9.822;2023-03-01T00:12:03;3.93;;;3.03;;
5452;SDS011;2749;53.576;9.822;2023-03-01T00:14:29;4.80;;;3.10;;
5452;SDS011;2749;53.576;9.822;2023-03-01T00:16:55;6.00;;;3.40;;
5452;SDS011;2749;53.576;9.822;2023-03-01T00:19:20;3.80;;;3.10;;
5452;SDS011;2749;53.576;9.822;2023-03-01T00:21:47;5.10;;;3.37;;
5452;SDS011;2749;53.576;9.822;2023-03-01T00:24:13;5.93;;;3.90;;
5452;SDS011;2749;53.576;9.822;2023-03-01T00:26:39;3.07;;;2.57;;
5452;SDS011;2749;53.576;9.822;2023-03-01T00:29:05;5.50;;;3.57;;
5452;SDS011;2749;53.576;9.822;2023-03-01T00:31:32;3.90;;;2.60;;
5452;SDS011;2749;53.576;9.822;2023-03-01T00:33:59;4.10;;;3.07;;
5452;SDS011;2749;53.576;9.822;2023-03-01T00:36:27;4.20;;;3.07;;
5452;SDS011;2749;53.576;9.822;2023-03-01T00:38:53;2.73;;;2.53;;
5452;SDS011;2749;53.576;9.822;2023-03-01T00:41:20;6.10;;;3.00;;
5452;SDS011;2749;53.576;9.822;2023-03-01T00:43:47;3.90;;;2.73;;
5452;SDS011;2749;53.576;9.822;2023-03-01T00:46:15;3.37;;;3.07;;
5452;SDS011;2749;53.576;9.822;2023-03-01T00:48:41;3.23;;;2.93;;
5452;SDS011;2749;53.576;9.822;2023-03-01T00:51:08;3.87;;;3.00;;
5452;SDS011;2749;53.576;9.822;2023-03-01T00:53:34;4.67;;;3.00;;
5452;SDS011;2749;53.576;9.822;2023-03-01T00:56:01;5.53;;;4.50;;
5452;SDS011;2749;53.576;9.822;2023-03-01T00:58:27;5.00;;;3.80;;
5452;SDS011;2749;53.576;9.822;2023-03-01T01:00:53;3.47;;;3.17;;
5452;SDS011;2749;53.576;9.822;2023-03-01T01:03:19;3.80;;;3.40;;
5452;SDS011;2749;53.576;9.822;2023-03-01T01:05:45;3.77;;;3.20;;
5452;SDS011;2749;53.576;9.822;2023-03-01T01:08:11;8.13;;;3.37;;
5452;SDS011;2749;53.576;9.822;2023-03-01T01:10:37;3.20;;;2.90;;
5452;SDS011;2749;53.576;9.822;2023-03-01T01:13:03;4.80;;;3.47;;
5452;SDS011;2749;53.576;9.822;2023-03-01T01:15:33;3.30;;;2.70;;
5452;SDS011;2749;53.576;9.822;2023-03-01T01:17:59;4.50;;;2.90;;
5452;SDS011;2749;53.576;9.822;2023-03-01T01:20:25;3.63;;;3.40;;
5452;SDS011;2749;53.576;9.822;2023-03-01T01:22:51;4.67;;;3.97;;
5452;SDS011;2749;53.576;9.822;2023-03-01T01:25:17;4.17;;;3.60;;
5452;SDS011;2749;53.576;9.822;2023-03-01T01:27:43;3.80;;;3.50;;
5452;SDS011;2749;53.576;9.822;2023-03-01T01:30:09;9.50;;;5.00;;
5452;SDS011;2749;53.576;9.822;2023-03-01T01:32:35;5.27;;;4.13;;
5452;SDS011;2749;53.576;9.822;2023-03-01T01:35:01;7.23;;;4.40;;
5452;SDS011;2749;53.576;9.822;2023-03-01T01:37:28;4.90;;;4.33;;
5452;SDS011;2749;53.576;9.822;2023-03-01T01:39:58;8.37;;;4.60;;
5452;SDS011;2749;53.576;9.822;2023-03-01T01:42:24;6.67;;;5.93;;
5452;SDS011;2749;53.576;9.822;2023-03-01T01:45:23;8.90;;;5.23;;
5452;SDS011;2749;53.576;9.822;2023-03-01T01:47:39;8.77;;;6.07;;
5452;SDS011;2749;53.576;9.822;2023-03-01T01:50:08;6.83;;;5.67;;
5452;SDS011;2749;53.576;9.822;2023-03-01T01:52:39;9.40;;;4.93;;
5452;SDS011;2749;53.576;9.822;2023-03-01T01:55:07;8.50;;;5.70;;
5452;SDS011;2749;53.576;9.822;2023-03-01T01:57:39;5.63;;;5.13;;
5452;SDS011;2749;53.576;9.822;2023-03-01T02:00:07;6.83;;;6.23;;
5452;SDS011;2749;53.576;9.822;2023-03-01T02:02:33;6.50;;;5.90;;
5452;SDS011;2749;53.576;9.822;2023-03-01T02:05:04;6.47;;;5.57;;
5452;SDS011;2749;53.576;9.822;2023-03-01T02:07:35;5.43;;;4.90;;
5452;SDS011;2749;53.576;9.822;2023-03-01T02:10:02;7.20;;;5.27;;
5452;SDS011;2749;53.576;9.822;2023-03-01T02:12:28;7.93;;;5.33;;
5452;SDS011;2749;53.576;9.822;2023-03-01T02:14:54;7.30;;;5.50;;
5452;SDS011;2749;53.576;9.822;2023-03-01T02:17:20;8.90;;;5.77;;
5452;SDS011;2749;53.576;9.822;2023-03-01T02:19:53;9.43;;;6.70;;
5452;SDS011;2749;53.576;9.822;2023-03-01T02:22:24;6.47;;;5.40;;
5452;SDS011;2749;53.576;9.822;2023-03-01T02:25:05;6.37;;;5.50;;
5452;SDS011;2749;53.576;9.822;2023-03-01T02:27:36;7.17;;;6.40;;
5452;SDS011;2749;53.576;9.822;2023-03-01T02:30:04;5.50;;;5.00;;
5452;SDS011;2749;53.576;9.822;2023-03-01T02:32:31;7.47;;;5.07;;
5452;SDS011;2749;53.576;9.822;2023-03-01T02:34:57;10.10;;;5.63;;
5452;SDS011;2749;53.576;9.822;2023-03-01T02:37:23;7.53;;;6.70;;
5452;SDS011;2749;53.576;9.822;2023-03-01T02:39:53;5.80;;;4.27;;
5452;SDS011;2749;53.576;9.822;2023-03-01T02:42:23;5.10;;;4.60;;
5452;SDS011;2749;53.576;9.822;2023-03-01T02:44:51;4.87;;;4.47;;
5452;SDS011;2749;53.576;9.822;2023-03-01T02:47:18;10.10;;;5.50;;
5452;SDS011;2749;53.576;9.822;2023-03-01T02:49:44;5.40;;;4.90;;
5452;SDS011;2749;53.576;9.822;2023-03-01T02:54:57;6.17;;;4.30;;
5452;SDS011;2749;53.576;9.822;2023-03-01T02:57:25;5.53;;;4.87;;
5452;SDS011;2749;53.576;9.822;2023-03-01T02:59:52;4.40;;;4.00;;
5452;SDS011;2749;53.576;9.822;2023-03-01T03:02:26;8.10;;;4.57;;
5452;SDS011;2749;53.576;9.822;2023-03-01T03:05:06;6.10;;;4.47;;
5452;SDS011;2749;53.576;9.822;2023-03-01T03:07:33;8.70;;;5.97;;
5452;SDS011;2749;53.576;9.822;2023-03-01T03:10:00;4.43;;;4.03;;
5452;SDS011;2749;53.576;9.822;2023-03-01T03:12:25;6.17;;;4.40;;
5452;SDS011;2749;53.576;9.822;2023-03-01T03:14:51;5.53;;;4.80;;
5452;SDS011;2749;53.576;9.822;2023-03-01T03:17:17;6.17;;;5.60;;
5452;SDS011;2749;53.576;9.822;2023-03-01T03:19:43;6.37;;;4.20;;
5452;SDS011;2749;53.576;9.822;2023-03-01T03:22:10;4.07;;;3.53;;
5452;SDS011;2749;53.576;9.822;2023-03-01T03:24:36;4.80;;;3.93;;
5452;SDS011;2749;53.576;9.822;2023-03-01T03:27:02;3.93;;;3.50;;
5452;SDS011;2749;53.576;9.822;2023-03-01T03:29:28;7.63;;;4.30;;
5452;SDS011;2749;53.576;9.822;2023-03-01T03:31:54;5.30;;;4.37;;
5452;SDS011;2749;53.576;9.822;2023-03-01T03:34:20;6.53;;;4.23;;
5452;SDS011;2749;53.576;9.822;2023-03-01T03:36:46;5.97;;;5.37;;
5452;SDS011;2749;53.576;9.822;2023-03-01T03:39:12;6.47;;;4.70;;
5452;SDS011;2749;53.576;9.822;2023-03-01T03:41:38;6.87;;;4.40;;
5452;SDS011;2749;53.576;9.822;2023-03-01T03:44:04;4.67;;;4.00;;
5452;SDS011;2749;53.576;9.822;2023-03-01T03:46:30;6.80;;;4.97;;
5452;SDS011;2749;53.576;9.822;2023-03-01T03:48:56;5.57;;;4.97;;
5452;SDS011;2749;53.576;9.822;2023-03-01T03:51:21;4.90;;;4.40;;
5452;SDS011;2749;53.576;9.822;2023-03-01T03:53:48;7.00;;;4.63;;
5452;SDS011;2749;53.576;9.822;2023-03-01T03:56:13;4.97;;;4.47;;
5452;SDS011;2749;53.576;9.822;2023-03-01T03:58:39;4.93;;;4.00;;
5452;SDS011;2749;53.576;9.822;2023-03-01T04:01:05;5.50;;;4.90;;
5452;SDS011;2749;53.576;9.822;2023-03-01T04:03:32;4.93;;;4.53;;
5452;SDS011;2749;53.576;9.822;2023-03-01T04:05:59;5.60;;;3.70;;
5452;SDS011;2749;53.576;9.822;2023-03-01T04:08:26;4.33;;;3.77;;
5452;SDS011;2749;53.576;9.822;2023-03-01T04:10:57;5.53;;;4.07;;
5452;SDS011;2749;53.576;9.822;2023-03-01T04:13:23;6.03;;;4.53;;
5452;SDS011;2749;53.576;9.822;2023-03-01T04:15:53;6.47;;;4.03;;
5452;SDS011;2749;53.576;9.822;2023-03-01T04:18:20;4.60;;;3.97;;
5452;SDS011;2749;53.576;9.822;2023-03-01T04:20:46;5.47;;;4.27;;
5452;SDS011;2749;53.576;9.822;2023-03-01T04:23:16;5.67;;;4.00;;
5452;SDS011;2749;53.576;9.822;2023-03-01T04:25:55;6.90;;;5.63;;
5452;SDS011;2749;53.576;9.822;2023-03-01T04:28:42;4.87;;;4.47;;
5452;SDS011;2749;53.576;9.822;2023-03-01T04:31:11;5.27;;;4.77;;
5452;SDS011;2749;53.576;9.822;2023-03-01T04:33:46;4.40;;;3.97;;
5452;SDS011;2749;53.576;9.822;2023-03-01T04:36:13;10.73;;;3.70;;
5452;SDS011;2749;53.576;9.822;2023-03-01T04:38:39;4.87;;;3.60;;
5452;SDS011;2749;53.576;9.822;2023-03-01T04:41:06;4.17;;;3.77;;
5452;SDS011;2749;53.576;9.822;2023-03-01T04:43:33;5.57;;;5.07;;
5452;SDS011;2749;53.576;9.822;2023-03-01T04:46:02;5.77;;;4.10;;
5452;SDS011;2749;53.576;9.822;2023-03-01T04:48:29;5.17;;;3.80;;
5452;SDS011;2749;53.576;9.822;2023-03-01T04:50:56;7.03;;;5.13;;
5452;SDS011;2749;53.576;9.822;2023-03-01T04:53:22;4.70;;;4.20;;
5452;SDS011;2749;53.576;9.822;2023-03-01T04:55:48;6.20;;;4.27;;
5452;SDS011;2749;53.576;9.822;2023-03-01T04:58:13;6.07;;;4.20;;
5452;SDS011;2749;53.576;9.822;2023-03-01T05:00:39;5.63;;;4.40;;
5452;SDS011;2749;53.576;9.822;2023-03-01T05:03:05;6.80;;;5.07;;
5452;SDS011;2749;53.576;9.822;2023-03-01T05:05:32;6.27;;;5.03;;
5452;SDS011;2749;53.576;9.822;2023-03-01T05:08:00;6.60;;;4.63;;
5452;SDS011;2749;53.576;9.822;2023-03-01T05:10:27;5.53;;;4.43;;
5452;SDS011;2749;53.576;9.822;2023-03-01T05:12:54;5.70;;;4.70;;
5452;SDS011;2749;53.576;9.822;2023-03-01T05:15:22;4.60;;;4.20;;
5452;SDS011;2749;53.576;9.822;2023-03-01T05:17:50;6.43;;;4.53;;
5452;SDS011;2749;53.576;9.822;2023-03-01T05:20:16;9.30;;;4.00;;
5452;SDS011;2749;53.576;9.822;2023-03-01T05:22:42;5.40;;;4.63;;
5452;SDS011;2749;53.576;9.822;2023-03-01T05:25:08;5.37;;;4.50;;
5452;SDS011;2749;53.576;9.822;2023-03-01T05:27:35;5.30;;;4.70;;
5452;SDS011;2749;53.576;9.822;2023-03-01T05:30:01;7.73;;;5.10;;
5452;SDS011;2749;53.576;9.822;2023-03-01T05:32:38;7.10;;;4.53;;
5452;SDS011;2749;53.576;9.822;2023-03-01T05:35:04;4.93;;;4.40;;
5452;SDS011;2749;53.576;9.822;2023-03-01T05:37:30;6.20;;;5.60;;
5452;SDS011;2749;53.576;9.822;2023-03-01T05:39:56;5.80;;;4.73;;
5452;SDS011;2749;53.576;9.822;2023-03-01T05:42:22;3.97;;;3.53;;
5452;SDS011;2749;53.576;9.822;2023-03-01T05:44:48;5.10;;;4.70;;
5452;SDS011;2749;53.576;9.822;2023-03-01T05:47:14;5.83;;;4.40;;
5452;SDS011;2749;53.576;9.822;2023-03-01T05:49:40;5.30;;;4.90;;
5452;SDS011;2749;53.576;9.822;2023-03-01T05:52:05;7.10;;;4.93;;
5452;SDS011;2749;53.576;9.822;2023-03-01T05:54:31;5.23;;;4.73;;
5452;SDS011;2749;53.576;9.822;2023-03-01T05:56:58;9.60;;;5.93;;
5452;SDS011;2749;53.576;9.822;2023-03-01T05:59:24;8.23;;;5.13;;
5452;SDS011;2749;53.576;9.822;2023-03-01T06:01:49;8.13;;;4.93;;
5452;SDS011;2749;53.576;9.822;2023-03-01T06:04:15;5.70;;;5.00;;
5452;SDS011;2749;53.576;9.822;2023-03-01T06:06:41;5.33;;;3.90;;
5452;SDS011;2749;53.576;9.822;2023-03-01T06:09:07;9.70;;;5.93;;
5452;SDS011;2749;53.576;9.822;2023-03-01T06:11:35;5.83;;;5.20;;
5452;SDS011;2749;53.576;9.822;2023-03-01T06:14:01;7.03;;;5.77;;
5452;SDS011;2749;53.576;9.822;2023-03-01T06:16:27;8.93;;;5.50;;
5452;SDS011;2749;53.576;9.822;2023-03-01T06:18:52;7.73;;;5.47;;
5452;SDS011;2749;53.576;9.822;2023-03-01T06:21:18;7.97;;;4.77;;
5452;SDS011;2749;53.576;9.822;2023-03-01T06:23:44;5.47;;;4.97;;
5452;SDS011;2749;53.576;9.822;2023-03-01T06:26:10;7.03;;;5.30;;
5452;SDS011;2749;53.576;9.822;2023-03-01T06:28:36;6.10;;;5.50;;
5452;SDS011;2749;53.576;9.822;2023-03-01T06:31:02;9.03;;;6.10;;
5452;SDS011;2749;53.576;9.822;2023-03-01T06:33:28;5.90;;;4.97;;
5452;SDS011;2749;53.576;9.822;2023-03-01T06:35:55;5.80;;;4.63;;
5452;SDS011;2749;53.576;9.822;2023-03-01T06:38:21;6.90;;;5.10;;
5452;SDS011;2749;53.576;9.822;2023-03-01T06:40:51;9.10;;;5.40;;
5452;SDS011;2749;53.576;9.822;2023-03-01T06:43:18;9.10;;;6.10;;
5452;SDS011;2749;53.576;9.822;2023-03-01T06:45:44;8.40;;;5.47;;
5452;SDS011;2749;53.576;9.822;2023-03-01T06:48:10;7.63;;;5.30;;
5452;SDS011;2749;53.576;9.822;2023-03-01T06:50:36;9.50;;;5.33;;
5452;SDS011;2749;53.576;9.822;2023-03-01T06:53:03;7.73;;;5.87;;
5452;SDS011;2749;53.576;9.822;2023-03-01T06:55:29;6.93;;;5.33;;
5452;SDS011;2749;53.576;9.822;2023-03-01T06:57:56;7.63;;;5.77;;
5452;SDS011;2749;53.576;9.822;2023-03-01T07:00:22;8.13;;;6.50;;
5452;SDS011;2749;53.576;9.822;2023-03-01T07:02:48;7.30;;;5.77;;
5452;SDS011;2749;53.576;9.822;2023-03-01T07:05:14;5.50;;;5.00;;
5452;SDS011;2749;53.576;9.822;2023-03-01T07:07:39;7.57;;;5.70;;
5452;SDS011;2749;53.576;9.822;2023-03-01T07:10:06;8.40;;;5.07;;
5452;SDS011;2749;53.576;9.822;2023-03-01T07:12:32;5.27;;;4.77;;
5452;SDS011;2749;53.576;9.822;2023-03-01T07:14:58;7.33;;;6.07;;
5452;SDS011;2749;53.576;9.822;2023-03-01T07:17:24;4.90;;;4.40;;
5452;SDS011;2749;53.576;9.822;2023-03-01T07:19:50;6.47;;;5.13;;
5452;SDS011;2749;53.576;9.822;2023-03-01T07:22:16;8.10;;;5.97;;
5452;SDS011;2749;53.576;9.822;2023-03-01T07:24:42;6.33;;;5.10;;
5452;SDS011;2749;53.576;9.822;2023-03-01T07:27:08;5.67;;;5.17;;
5452;SDS011;2749;53.576;9.822;2023-03-01T07:29:34;7.17;;;5.73;;
5452;SDS011;2749;53.576;9.822;2023-03-01T07:32:03;6.60;;;5.10;;
5452;SDS011;2749;53.576;9.822;2023-03-01T07:34:30;5.47;;;4.90;;
5452;SDS011;2749;53.576;9.822;2023-03-01T07:36:56;5.80;;;5.20;;
5452;SDS011;2749;53.576;9.822;2023-03-01T07:39:21;6.73;;;4.80;;
5452;SDS011;2749;53.576;9.822;2023-03-01T07:41:50;10.30;;;6.83;;
5452;SDS011;2749;53.576;9.822;2023-03-01T07:44:17;7.23;;;4.73;;
5452;SDS011;2749;53.576;9.822;2023-03-01T07:46:43;6.27;;;5.30;;
5452;SDS011;2749;53.576;9.822;2023-03-01T07:49:09;4.97;;;4.43;;
5452;SDS011;2749;53.576;9.822;2023-03-01T07:51:35;7.63;;;5.40;;
5452;SDS011;2749;53.576;9.822;2023-03-01T07:54:01;6.10;;;5.13;;
5452;SDS011;2749;53.576;9.822;2023-03-01T07:56:27;7.20;;;5.57;;
5452;SDS011;2749;53.576;9.822;2023-03-01T07:58:53;5.77;;;5.27;;
5452;SDS011;2749;53.576;9.822;2023-03-01T08:01:20;8.63;;;5.70;;
5452;SDS011;2749;53.576;9.822;2023-03-01T08:03:46;5.83;;;5.30;;
5452;SDS011;2749;53.576;9.822;2023-03-01T08:06:13;8.10;;;7.03;;
5452;SDS011;2749;53.576;9.822;2023-03-01T08:08:39;6.70;;;5.80;;
5452;SDS011;2749;53.576;9.822;2023-03-01T08:11:06;9.47;;;7.07;;
5452;SDS011;2749;53.576;9.822;2023-03-01T08:13:32;8.90;;;7.73;;
5452;SDS011;2749;53.576;9.822;2023-03-01T08:16:01;8.70;;;7.77;;
5452;SDS011;2749;53.576;9.822;2023-03-01T08:18:28;8.00;;;6.70;;
5452;SDS011;2749;53.576;9.822;2023-03-01T08:20:54;7.93;;;7.33;;
5452;SDS011;2749;53.576;9.822;2023-03-01T08:23:19;10.77;;;7.43;;
5452;SDS011;2749;53.576;9.822;2023-03-01T08:25:45;8.23;;;7.43;;
5452;SDS011;2749;53.576;9.822;2023-03-01T08:28:11;7.60;;;6.47;;
5452;SDS011;2749;53.576;9.822;2023-03-01T08:30:37;10.77;;;9.10;;
5452;SDS011;2749;53.576;9.822;2023-03-01T08:33:03;9.73;;;8.63;;
5452;SDS011;2749;53.576;9.822;2023-03-01T08:35:29;10.17;;;8.30;;
5452;SDS011;2749;53.576;9.822;2023-03-01T08:37:55;7.67;;;6.97;;
5452;SDS011;2749;53.576;9.822;2023-03-01T08:40:21;11.93;;;9.00;;
5452;SDS011;2749;53.576;9.822;2023-03-01T08:42:47;9.70;;;7.83;;
5452;SDS011;2749;53.576;9.822;2023-03-01T08:45:13;11.70;;;9.10;;
5452;SDS011;2749;53.576;9.822;2023-03-01T08:47:43;8.87;;;8.00;;
5452;SDS011;2749;53.576;9.822;2023-03-01T08:50:10;11.53;;;8.50;;
5452;SDS011;2749;53.576;9.822;2023-03-01T08:52:36;11.20;;;9.30;;
5452;SDS011;2749;53.576;9.822;2023-03-01T08:55:02;13.73;;;8.40;;
5452;SDS011;2749;53.576;9.822;2023-03-01T08:57:27;9.83;;;8.83;;
5452;SDS011;2749;53.576;9.822;2023-03-01T08:59:53;9.80;;;8.80;;
5452;SDS011;2749;53.576;9.822;2023-03-01T09:02:21;10.73;;;9.80;;
5452;SDS011;2749;53.576;9.822;2023-03-01T09:04:46;12.10;;;9.60;;
5452;SDS011;2749;53.576;9.822;2023-03-01T09:07:12;11.80;;;8.93;;
5452;SDS011;2749;53.576;9.822;2023-03-01T09:09:38;12.57;;;10.20;;
5452;SDS011;2749;53.576;9.822;2023-03-01T09:12:04;13.20;;;10.37;;
5452;SDS011;2749;53.576;9.822;2023-03-01T09:14:30;11.40;;;9.80;;
5452;SDS011;2749;53.576;9.822;2023-03-01T09:16:56;14.13;;;10.30;;
5452;SDS011;2749;53.576;9.822;2023-03-01T09:19:22;15.20;;;9.60;;
5452;SDS011;2749;53.576;9.822;2023-03-01T09:21:48;14.43;;;10.30;;
5452;SDS011;2749;53.576;9.822;2023-03-01T09:24:18;13.50;;;9.87;;
5452;SDS011;2749;53.576;9.822;2023-03-01T09:26:44;12.77;;;10.43;;
5452;SDS011;2749;53.576;9.822;2023-03-01T09:29:11;11.07;;;9.93;;
5452;SDS011;2749;53.576;9.822;2023-03-01T09:31:37;12.80;;;10.20;;
5452;SDS011;2749;53.576;9.822;2023-03-01T09:34:03;14.13;;;9.83;;
5452;SDS011;2749;53.576;9.822;2023-03-01T09:36:29;15.13;;;10.47;;
5452;SDS011;2749;53.576;9.822;2023-03-01T09:38:55;13.03;;;10.70;;
5452;SDS011;2749;53.576;9.822;2023-03-01T09:44:10;11.57;;;10.13;;
5452;SDS011;2749;53.576;9.822;2023-03-01T09:46:38;12.50;;;8.40;;
5452;SDS011;2749;53.576;9.822;2023-03-01T09:49:09;12.00;;;8.90;;
5452;SDS011;2749;53.576;9.822;2023-03-01T09:51:37;11.50;;;8.57;;
5452;SDS011;2749;53.576;9.822;2023-03-01T09:54:03;13.10;;;8.03;;
5452;SDS011;2749;53.576;9.822;2023-03-01T09:56:46;12.10;;;8.63;;
5452;SDS011;2749;53.576;9.822;2023-03-01T09:59:20;13.47;;;10.50;;
5452;SDS011;2749;53.576;9.822;2023-03-01T10:04:26;12.40;;;10.40;;
5452;SDS011;2749;53.576;9.822;2023-03-01T10:09:22;12.43;;;9.53;;
5452;SDS011;2749;53.576;9.822;2023-03-01T10:11:48;14.57;;;11.20;;
5452;SDS011;2749;53.576;9.822;2023-03-01T10:14:19;13.60;;;10.47;;
5452;SDS011;2749;53.576;9.822;2023-03-01T10:16:54;15.47;;;10.13;;
5452;SDS011;2749;53.576;9.822;2023-03-01T10:21:49;12.23;;;8.90;;
5452;SDS011;2749;53.576;9.822;2023-03-01T10:24:17;10.20;;;8.83;;
5452;SDS011;2749;53.576;9.822;2023-03-01T10:29:15;12.93;;;7.47;;
5452;SDS011;2749;53.576;9.822;2023-03-01T10:31:45;9.63;;;7.40;;
5452;SDS011;2749;53.576;9.822;2023-03-01T10:36:41;9.23;;;8.33;;
5452;SDS011;2749;53.576;9.822;2023-03-01T10:39:12;11.43;;;7.87;;
5452;SDS011;2749;53.576;9.822;2023-03-01T10:41:49;8.20;;;5.80;;
5452;SDS011;2749;53.576;9.822;2023-03-01T10:44:34;7.73;;;6.90;;
5452;SDS011;2749;53.576;9.822;2023-03-01T10:47:01;7.90;;;6.33;;
5452;SDS011;2749;53.576;9.822;2023-03-01T10:49:27;9.63;;;7.60;;
5452;SDS011;2749;53.576;9.822;2023-03-01T10:51:53;9.73;;;7.80;;
5452;SDS011;2749;53.576;9.822;2023-03-01T10:54:22;9.80;;;7.70;;
5452;SDS011;2749;53.576;9.822;2023-03-01T10:56:51;11.13;;;7.80;;
5452;SDS011;2749;53.576;9.822;2023-03-01T10:59:37;11.50;;;7.80;;
5452;SDS011;2749;53.576;9.822;2023-03-01T11:07:29;12.10;;;8.07;;
5452;SDS011;2749;53.576;9.822;2023-03-01T11:09:55;9.47;;;6.67;;
5452;SDS011;2749;53.576;9.822;2023-03-01T11:12:21;11.33;;;8.20;;
5452;SDS011;2749;53.576;9.822;2023-03-01T11:14:48;12.13;;;8.70;;
5452;SDS011;2749;53.576;9.822;2023-03-01T11:17:25;10.80;;;7.50;;
5452;SDS011;2749;53.576;9.822;2023-03-01T11:22:37;11.93;;;7.03;;
5452;SDS011;2749;53.576;9.822;2023-03-01T11:25:10;11.73;;;8.50;;
5452;SDS011;2749;53.576;9.822;2023-03-01T11:27:40;7.70;;;6.60;;
5452;SDS011;2749;53.576;9.822;2023-03-01T11:30:13;10.17;;;6.43;;
5452;SDS011;2749;53.576;9.822;2023-03-01T11:32:54;9.83;;;7.47;;
5452;SDS011;2749;53.576;9.822;2023-03-01T11:35:23;9.13;;;7.37;;
5452;SDS011;2749;53.576;9.822;2023-03-01T11:37:55;12.40;;;8.17;;
5452;SDS011;2749;53.576;9.822;2023-03-01T11:40:25;9.87;;;7.90;;
5452;SDS011;2749;53.576;9.822;2023-03-01T11:45:17;14.10;;;8.10;;
5452;SDS011;2749;53.576;9.822;2023-03-01T11:52:52;12.80;;;7.37;;
5452;SDS011;2749;53.576;9.822;2023-03-01T11:58:14;14.43;;;7.57;;
5452;SDS011;2749;53.576;9.822;2023-03-01T12:00:47;15.70;;;8.50;;
5452;SDS011;2749;53.576;9.822;2023-03-01T12:03:29;10.40;;;8.90;;
5452;SDS011;2749;53.576;9.822;2023-03-01T12:08:32;12.67;;;7.67;;
5452;SDS011;2749;53.576;9.822;2023-03-01T12:11:12;11.93;;;8.90;;
5452;SDS011;2749;53.576;9.822;2023-03-01T12:13:46;15.63;;;8.53;;
5452;SDS011;2749;53.576;9.822;2023-03-01T12:21:40;10.60;;;7.30;;
5452;SDS011;2749;53.576;9.822;2023-03-01T12:24:24;8.93;;;7.50;;
5452;SDS011;2749;53.576;9.822;2023-03-01T12:32:39;9.17;;;6.00;;
5452;SDS011;2749;53.576;9.822;2023-03-01T12:37:44;12.17;;;6.80;;
5452;SDS011;2749;53.576;9.822;2023-03-01T12:45:48;10.27;;;6.90;;
5452;SDS011;2749;53.576;9.822;2023-03-01T12:50:52;13.77;;;9.20;;
5452;SDS011;2749;53.576;9.822;2023-03-01T12:53:31;12.73;;;9.30;;
5452;SDS011;2749;53.576;9.822;2023-03-01T12:56:02;9.60;;;8.17;;
5452;SDS011;2749;53.576;9.822;2023-03-01T13:08:38;14.53;;;10.57;;
5452;SDS011;2749;53.576;9.822;2023-03-01T13:11:06;11.30;;;9.23;;
5452;SDS011;2749;53.576;9.822;2023-03-01T13:13:37;11.77;;;8.00;;
5452;SDS011;2749;53.576;9.822;2023-03-01T13:16:27;10.97;;;8.63;;
5452;SDS011;2749;53.576;9.822;2023-03-01T13:19:14;8.30;;;7.30;;
5452;SDS011;2749;53.576;9.822;2023-03-01T13:21:41;12.50;;;9.73;;
5452;SDS011;2749;53.576;9.822;2023-03-01T13:24:23;10.63;;;8.13;;
5452;SDS011;2749;53.576;9.822;2023-03-01T13:29:44;11.00;;;8.77;;
5452;SDS011;2749;53.576;9.822;2023-03-01T13:32:24;13.87;;;8.53;;
5452;SDS011;2749;53.576;9.822;2023-03-01T13:37:37;15.67;;;9.67;;
5452;SDS011;2749;53.576;9.822;2023-03-01T13:40:04;13.67;;;10.43;;
5452;SDS011;2749;53.576;9.822;2023-03-01T13:44:57;15.37;;;9.47;;
5452;SDS011;2749;53.576;9.822;2023-03-01T13:47:23;10.00;;;7.27;;
5452;SDS011;2749;53.576;9.822;2023-03-01T13:49:59;12.00;;;8.47;;
5452;SDS011;2749;53.576;9.822;2023-03-01T13:52:35;10.57;;;7.40;;
5452;SDS011;2749;53.576;9.822;2023-03-01T13:55:06;13.40;;;8.17;;
5452;SDS011;2749;53.576;9.822;2023-03-01T13:57:33;12.87;;;8.10;;
5452;SDS011;2749;53.576;9.822;2023-03-01T14:00:00;10.80;;;8.10;;
5452;SDS011;2749;53.576;9.822;2023-03-01T14:02:25;13.73;;;9.77;;
5452;SDS011;2749;53.576;9.822;2023-03-01T14:04:58;11.70;;;9.20;;
5452;SDS011;2749;53.576;9.822;2023-03-01T14:07:25;17.47;;;8.90;;
5452;SDS011;2749;53.576;9.822;2023-03-01T14:09:54;10.37;;;8.67;;
5452;SDS011;2749;53.576;9.822;2023-03-01T14:14:56;9.00;;;6.90;;
5452;SDS011;2749;53.576;9.822;2023-03-01T14:20:17;7.27;;;5.20;;
5452;SDS011;2749;53.576;9.822;2023-03-01T14:22:43;9.97;;;6.50;;
5452;SDS011;2749;53.576;9.822;2023-03-01T14:25:17;11.73;;;8.40;;
5452;SDS011;2749;53.576;9.822;2023-03-01T14:27:44;9.30;;;5.70;;
5452;SDS011;2749;53.576;9.822;2023-03-01T14:30:21;7.73;;;7.00;;
5452;SDS011;2749;53.576;9.822;2023-03-01T14:32:57;10.13;;;6.30;;
5452;SDS011;2749;53.576;9.822;2023-03-01T14:35:25;7.97;;;5.23;;
5452;SDS011;2749;53.576;9.822;2023-03-01T14:37:51;7.33;;;5.40;;
5452;SDS011;2749;53.576;9.822;2023-03-01T14:40:27;8.47;;;5.77;;
5452;SDS011;2749;53.576;9.822;2023-03-01T14:42:54;8.97;;;6.23;;
5452;SDS011;2749;53.576;9.822;2023-03-01T14:45:22;10.07;;;6.63;;
5452;SDS011;2749;53.576;9.822;2023-03-01T14:47:48;10.73;;;7.63;;
5452;SDS011;2749;53.576;9.822;2023-03-01T14:50:23;9.60;;;7.30;;
5452;SDS011;2749;53.576;9.822;2023-03-01T14:52:50;10.57;;;7.10;;
5452;SDS011;2749;53.576;9.822;2023-03-01T14:55:18;12.07;;;6.53;;
5452;SDS011;2749;53.576;9.822;2023-03-01T14:57:46;9.63;;;7.17;;
5452;SDS011;2749;53.576;9.822;2023-03-01T15:00:18;9.60;;;6.93;;
5452;SDS011;2749;53.576;9.822;2023-03-01T15:02:44;7.73;;;5.37;;
5452;SDS011;2749;53.576;9.822;2023-03-01T15:05:13;7.43;;;5.70;;
5452;SDS011;2749;53.576;9.822;2023-03-01T15:07:40;8.73;;;6.40;;
5452;SDS011;2749;53.576;9.822;2023-03-01T15:10:07;9.57;;;7.77;;
5452;SDS011;2749;53.576;9.822;2023-03-01T15:12:39;8.90;;;7.77;;
5452;SDS011;2749;53.576;9.822;2023-03-01T15:15:30;9.23;;;5.27;;
5452;SDS011;2749;53.576;9.822;2023-03-01T15:17:58;9.10;;;5.90;;
5452;SDS011;2749;53.576;9.822;2023-03-01T15:20:24;9.50;;;6.97;;
5452;SDS011;2749;53.576;9.822;2023-03-01T15:22:52;9.73;;;6.70;;
5452;SDS011;2749;53.576;9.822;2023-03-01T15:25:19;8.93;;;7.10;;
5452;SDS011;2749;53.576;9.822;2023-03-01T15:27:46;10.37;;;6.40;;
5452;SDS011;2749;53.576;9.822;2023-03-01T15:30:16;9.93;;;6.73;;
5452;SDS011;2749;53.576;9.822;2023-03-01T15:32:43;9.00;;;6.60;;
5452;SDS011;2749;53.576;9.822;2023-03-01T15:37:53;9.80;;;6.67;;
5452;SDS011;2749;53.576;9.822;2023-03-01T15:40:26;13.40;;;8.63;;
5452;SDS011;2749;53.576;9.822;2023-03-01T15:42:59;12.57;;;8.83;;
5452;SDS011;2749;53.576;9.822;2023-03-01T15:45:25;12.73;;;7.50;;
5452;SDS011;2749;53.576;9.822;2023-03-01T15:47:53;9.77;;;7.70;;
5452;SDS011;2749;53.576;9.822;2023-03-01T15:50:26;11.33;;;6.77;;
5452;SDS011;2749;53.576;9.822;2023-03-01T15:52:53;12.63;;;8.10;;
5452;SDS011;2749;53.576;9.822;2023-03-01T15:55:24;17.03;;;8.50;;
5452;SDS011;2749;53.576;9.822;2023-03-01T15:58:00;15.33;;;9.43;;
5452;SDS011;2749;53.576;9.822;2023-03-01T16:00:28;16.10;;;9.40;;
5452;SDS011;2749;53.576;9.822;2023-03-01T16:02:54;11.97;;;8.60;;
5452;SDS011;2749;53.576;9.822;2023-03-01T16:05:24;13.17;;;9.80;;
5452;SDS011;2749;53.576;9.822;2023-03-01T16:07:51;14.97;;;10.87;;
5452;SDS011;2749;53.576;9.822;2023-03-01T16:10:17;13.00;;;10.40;;
5452;SDS011;2749;53.576;9.822;2023-03-01T16:12:43;14.90;;;10.53;;
5452;SDS011;2749;53.576;9.822;2023-03-01T16:15:19;14.13;;;9.47;;
5452;SDS011;2749;53.576;9.822;2023-03-01T16:17:45;14.33;;;10.73;;
5452;SDS011;2749;53.576;9.822;2023-03-01T16:20:12;18.40;;;11.77;;
5452;SDS011;2749;53.576;9.822;2023-03-01T16:22:44;19.97;;;11.80;;
5452;SDS011;2749;53.576;9.822;2023-03-01T16:25:11;18.73;;;10.33;;
5452;SDS011;2749;53.576;9.822;2023-03-01T16:27:37;17.77;;;12.83;;
5452;SDS011;2749;53.576;9.822;2023-03-01T16:30:04;19.57;;;12.40;;
5452;SDS011;2749;53.576;9.822;2023-03-01T16:32:30;20.03;;;12.27;;
5452;SDS011;2749;53.576;9.822;2023-03-01T16:34:56;12.40;;;8.93;;
5452;SDS011;2749;53.576;9.822;2023-03-01T16:37:22;15.30;;;9.70;;
5452;SDS011;2749;53.576;9.822;2023-03-01T16:39:48;16.40;;;10.53;;
5452;SDS011;2749;53.576;9.822;2023-03-01T16:42:16;15.43;;;12.03;;
5452;SDS011;2749;53.576;9.822;2023-03-01T16:44:42;15.20;;;9.57;;